sensor_id;sensor_type;location;lat;lon;timestamp;pressure;altitude;pressure_sealevel;temperature
70389;BMP280;58659;49.050;8.530;2023-08-06T00:01:41;98680.31;;;16.37
70389;BMP280;58659;49.050;8.530;2023-08-06T00:04:07;98414.84;;;14.56
70389;BMP280;58659;49.050;8.530;2023-08-06T00:06:32;98422.63;;;14.59
70389;BMP280;58659;49.050;8.530;2023-08-06T00:08:57;98426.63;;;14.48
70389;BMP280;58659;49.050;8.530;2023-08-06T00:11:22;98435.50;;;14.38
70389;BMP280;58659;49.050;8.530;2023-08-06T00:13:48;98516.22;;;14.89
70389;BMP280;58659;49.050;8.530;2023-08-06T00:16:13;98514.66;;;14.92
70389;BMP280;58659;49.050;8.530;2023-08-06T00:18:39;98502.66;;;14.91
70389;BMP280;58659;49.050;8.530;2023-08-06T00:21:05;98411.84;;;14.22
70389;BMP280;58659;49.050;8.530;2023-08-06T00:23:30;98491.69;;;14.76
70389;BMP280;58659;49.050;8.530;2023-08-06T00:25:55;98465.66;;;14.65
70389;BMP280;58659;49.050;8.530;2023-08-06T00:28:21;98842.63;;;17.24
70389;BMP280;58659;49.050;8.530;2023-08-06T00:30:46;98461.72;;;14.57
70389;BMP280;58659;49.050;8.530;2023-08-06T00:33:17;98450.91;;;14.36
70389;BMP280;58659;49.050;8.530;2023-08-06T00:35:42;98449.19;;;14.29
70389;BMP280;58659;49.050;8.530;2023-08-06T00:38:07;98699.75;;;15.98
70389;BMP280;58659;49.050;8.530;2023-08-06T00:40:32;98450.97;;;14.16
70389;BMP280;58659;49.050;8.530;2023-08-06T00:42:58;98444.38;;;14.08
70389;BMP280;58659;49.050;8.530;2023-08-06T00:45:23;98421.25;;;14.03
70389;BMP280;58659;49.050;8.530;2023-08-06T00:47:48;98392.63;;;14.08
70389;BMP280;58659;49.050;8.530;2023-08-06T00:50:14;98386.78;;;14.17
70389;BMP280;58659;49.050;8.530;2023-08-06T00:52:39;98388.75;;;14.29
70389;BMP280;58659;49.050;8.530;2023-08-06T00:55:05;98418.44;;;14.46
70389;BMP280;58659;49.050;8.530;2023-08-06T00:57:31;98489.16;;;14.56
70389;BMP280;58659;49.050;8.530;2023-08-06T00:59:56;98509.84;;;14.70
70389;BMP280;58659;49.050;8.530;2023-08-06T01:02:21;98617.09;;;14.79
70389;BMP280;58659;49.050;8.530;2023-08-06T01:04:46;98635.19;;;14.93
70389;BMP280;58659;49.050;8.530;2023-08-06T01:12:45;98695.03;;;15.05
70389;BMP280;58659;49.050;8.530;2023-08-06T01:15:19;98696.00;;;15.15
70389;BMP280;58659;49.050;8.530;2023-08-06T01:17:45;98697.13;;;15.14
70389;BMP280;58659;49.050;8.530;2023-08-06T01:20:11;98733.97;;;15.14
70389;BMP280;58659;49.050;8.530;2023-08-06T01:22:36;98721.47;;;15.18
70389;BMP280;58659;49.050;8.530;2023-08-06T01:25:01;98712.03;;;15.20
70389;BMP280;58659;49.050;8.530;2023-08-06T01:27:28;98682.50;;;15.13
70389;BMP280;58659;49.050;8.530;2023-08-06T01:30:17;98753.47;;;15.16
70389;BMP280;58659;49.050;8.530;2023-08-06T01:32:44;98783.81;;;15.21
70389;BMP280;58659;49.050;8.530;2023-08-06T01:35:11;98796.00;;;15.31
70389;BMP280;58659;49.050;8.530;2023-08-06T01:37:36;98811.69;;;15.34
70389;BMP280;58659;49.050;8.530;2023-08-06T01:40:05;98826.97;;;15.43
70389;BMP280;58659;49.050;8.530;2023-08-06T01:42:30;98831.00;;;15.48
70389;BMP280;58659;49.050;8.530;2023-08-06T01:44:55;98820.06;;;15.49
70389;BMP280;58659;49.050;8.530;2023-08-06T01:47:20;98822.88;;;15.58
70389;BMP280;58659;49.050;8.530;2023-08-06T01:49:46;98766.06;;;15.61
70389;BMP280;58659;49.050;8.530;2023-08-06T01:52:11;98764.66;;;15.56
70389;BMP280;58659;49.050;8.530;2023-08-06T01:54:36;98812.84;;;15.53
70389;BMP280;58659;49.050;8.530;2023-08-06T01:57:01;98818.78;;;15.57
70389;BMP280;58659;49.050;8.530;2023-08-06T01:59:27;98793.22;;;15.58
70389;BMP280;58659;49.050;8.530;2023-08-06T02:01:52;98763.09;;;15.59
70389;BMP280;58659;49.050;8.530;2023-08-06T02:04:17;98720.56;;;15.60
70389;BMP280;58659;49.050;8.530;2023-08-06T02:06:43;98683.69;;;15.44
70389;BMP280;58659;49.050;8.530;2023-08-06T02:09:08;98638.22;;;15.27
70389;BMP280;58659;49.050;8.530;2023-08-06T02:11:33;98643.78;;;15.13
70389;BMP280;58659;49.050;8.530;2023-08-06T02:13:58;98622.09;;;15.09
70389;BMP280;58659;49.050;8.530;2023-08-06T02:16:23;98665.34;;;15.05
70389;BMP280;58659;49.050;8.530;2023-08-06T02:18:48;98679.25;;;15.05
70389;BMP280;58659;49.050;8.530;2023-08-06T02:21:14;98650.06;;;15.00
70389;BMP280;58659;49.050;8.530;2023-08-06T02:23:39;98590.81;;;14.95
70389;BMP280;58659;49.050;8.530;2023-08-06T02:26:04;98583.53;;;14.87
70389;BMP280;58659;49.050;8.530;2023-08-06T02:28:30;98552.25;;;14.72
70389;BMP280;58659;49.050;8.530;2023-08-06T02:30:55;98549.28;;;14.70
70389;BMP280;58659;49.050;8.530;2023-08-06T02:33:20;98523.00;;;14.70
70389;BMP280;58659;49.050;8.530;2023-08-06T02:35:45;98513.97;;;14.71
70389;BMP280;58659;49.050;8.530;2023-08-06T02:38:11;98488.31;;;14.75
70389;BMP280;58659;49.050;8.530;2023-08-06T02:40:36;98505.69;;;14.73
70389;BMP280;58659;49.050;8.530;2023-08-06T02:43:01;98536.59;;;14.85
70389;BMP280;58659;49.050;8.530;2023-08-06T02:45:26;98566.09;;;14.93
70389;BMP280;58659;49.050;8.530;2023-08-06T02:47:51;98586.31;;;14.96
70389;BMP280;58659;49.050;8.530;2023-08-06T02:50:17;98612.50;;;14.99
70389;BMP280;58659;49.050;8.530;2023-08-06T02:52:42;98630.66;;;14.94
70389;BMP280;58659;49.050;8.530;2023-08-06T02:55:07;98628.47;;;14.92
70389;BMP280;58659;49.050;8.530;2023-08-06T02:57:32;98604.56;;;14.87
70389;BMP280;58659;49.050;8.530;2023-08-06T02:59:58;98626.25;;;14.91
70389;BMP280;58659;49.050;8.530;2023-08-06T03:02:23;98613.59;;;14.86
70389;BMP280;58659;49.050;8.530;2023-08-06T03:04:48;98605.69;;;14.86
70389;BMP280;58659;49.050;8.530;2023-08-06T03:07:13;98595.97;;;14.83
70389;BMP280;58659;49.050;8.530;2023-08-06T03:09:38;98585.88;;;14.81
70389;BMP280;58659;49.050;8.530;2023-08-06T03:12:04;98559.75;;;14.74
70389;BMP280;58659;49.050;8.530;2023-08-06T03:14:29;98565.03;;;14.70
70389;BMP280;58659;49.050;8.530;2023-08-06T03:16:54;98558.31;;;14.69
70389;BMP280;58659;49.050;8.530;2023-08-06T03:19:19;98537.22;;;14.73
70389;BMP280;58659;49.050;8.530;2023-08-06T03:21:45;98525.09;;;14.79
70389;BMP280;58659;49.050;8.530;2023-08-06T03:24:10;98533.00;;;14.75
70389;BMP280;58659;49.050;8.530;2023-08-06T03:26:35;98547.34;;;14.74
70389;BMP280;58659;49.050;8.530;2023-08-06T03:29:00;98550.28;;;14.76
70389;BMP280;58659;49.050;8.530;2023-08-06T03:31:25;98570.25;;;14.74
70389;BMP280;58659;49.050;8.530;2023-08-06T03:33:50;98573.28;;;14.72
70389;BMP280;58659;49.050;8.530;2023-08-06T03:36:16;98595.44;;;14.71
70389;BMP280;58659;49.050;8.530;2023-08-06T03:38:41;98611.22;;;14.71
70389;BMP280;58659;49.050;8.530;2023-08-06T03:41:06;98608.94;;;14.73
70389;BMP280;58659;49.050;8.530;2023-08-06T03:43:31;98604.09;;;14.72
70389;BMP280;58659;49.050;8.530;2023-08-06T03:45:56;98601.09;;;14.70
70389;BMP280;58659;49.050;8.530;2023-08-06T03:48:22;98592.81;;;14.71
70389;BMP280;58659;49.050;8.530;2023-08-06T03:50:47;98594.72;;;14.71
70389;BMP280;58659;49.050;8.530;2023-08-06T03:53:12;98592.94;;;14.64
70389;BMP280;58659;49.050;8.530;2023-08-06T03:55:37;98602.75;;;14.64
70389;BMP280;58659;49.050;8.530;2023-08-06T03:58:03;98599.31;;;14.67
70389;BMP280;58659;49.050;8.530;2023-08-06T04:00:28;98602.00;;;14.63
70389;BMP280;58659;49.050;8.530;2023-08-06T04:02:53;98595.31;;;14.59
70389;BMP280;58659;49.050;8.530;2023-08-06T04:05:18;98577.50;;;14.50
70389;BMP280;58659;49.050;8.530;2023-08-06T04:07:44;98568.47;;;14.51
70389;BMP280;58659;49.050;8.530;2023-08-06T04:10:09;98579.03;;;14.48
70389;BMP280;58659;49.050;8.530;2023-08-06T04:12:34;98576.69;;;14.34
70389;BMP280;58659;49.050;8.530;2023-08-06T04:15:03;98560.66;;;14.28
70389;BMP280;58659;49.050;8.530;2023-08-06T04:17:28;98537.19;;;14.21
70389;BMP280;58659;49.050;8.530;2023-08-06T04:19:54;98515.16;;;14.15
70389;BMP280;58659;49.050;8.530;2023-08-06T04:22:20;98493.03;;;14.12
70389;BMP280;58659;49.050;8.530;2023-08-06T04:24:45;98492.31;;;14.12
70389;BMP280;58659;49.050;8.530;2023-08-06T04:27:11;98490.50;;;14.09
70389;BMP280;58659;49.050;8.530;2023-08-06T04:29:36;98494.28;;;14.08
70389;BMP280;58659;49.050;8.530;2023-08-06T04:32:01;98485.91;;;14.13
70389;BMP280;58659;49.050;8.530;2023-08-06T04:34:27;98513.69;;;14.10
70389;BMP280;58659;49.050;8.530;2023-08-06T04:36:52;98500.31;;;14.05
70389;BMP280;58659;49.050;8.530;2023-08-06T04:39:17;98504.09;;;14.04
70389;BMP280;58659;49.050;8.530;2023-08-06T04:41:42;98491.28;;;14.06
70389;BMP280;58659;49.050;8.530;2023-08-06T04:44:08;98478.66;;;14.01
70389;BMP280;58659;49.050;8.530;2023-08-06T04:46:33;98492.53;;;14.01
70389;BMP280;58659;49.050;8.530;2023-08-06T04:48:58;98492.03;;;14.06
70389;BMP280;58659;49.050;8.530;2023-08-06T04:51:23;98501.06;;;14.05
70389;BMP280;58659;49.050;8.530;2023-08-06T04:53:49;98514.94;;;14.06
70389;BMP280;58659;49.050;8.530;2023-08-06T04:56:14;98521.28;;;14.08
70389;BMP280;58659;49.050;8.530;2023-08-06T04:58:39;98534.00;;;14.10
70389;BMP280;58659;49.050;8.530;2023-08-06T05:01:04;98558.78;;;14.09
70389;BMP280;58659;49.050;8.530;2023-08-06T05:03:29;98562.72;;;14.17
70389;BMP280;58659;49.050;8.530;2023-08-06T05:05:55;98550.34;;;14.17
70389;BMP280;58659;49.050;8.530;2023-08-06T05:08:20;98550.31;;;14.21
70389;BMP280;58659;49.050;8.530;2023-08-06T05:10:45;98539.72;;;14.25
70389;BMP280;58659;49.050;8.530;2023-08-06T05:13:10;98548.59;;;14.31
70389;BMP280;58659;49.050;8.530;2023-08-06T05:15:36;98539.59;;;14.32
70389;BMP280;58659;49.050;8.530;2023-08-06T05:18:01;98531.31;;;14.33
70389;BMP280;58659;49.050;8.530;2023-08-06T05:20:26;98522.47;;;14.43
70389;BMP280;58659;49.050;8.530;2023-08-06T05:22:51;98529.50;;;14.46
70389;BMP280;58659;49.050;8.530;2023-08-06T05:25:16;98531.66;;;14.51
70389;BMP280;58659;49.050;8.530;2023-08-06T05:27:42;98516.97;;;14.54
70389;BMP280;58659;49.050;8.530;2023-08-06T05:30:07;98510.66;;;14.51
70389;BMP280;58659;49.050;8.530;2023-08-06T05:32:32;98495.63;;;14.52
70389;BMP280;58659;49.050;8.530;2023-08-06T05:34:58;98480.53;;;14.56
70389;BMP280;58659;49.050;8.530;2023-08-06T05:37:23;98502.59;;;14.58
70389;BMP280;58659;49.050;8.530;2023-08-06T05:39:48;98497.06;;;14.56
70389;BMP280;58659;49.050;8.530;2023-08-06T05:42:13;98498.56;;;14.54
70389;BMP280;58659;49.050;8.530;2023-08-06T05:44:38;98489.63;;;14.51
70389;BMP280;58659;49.050;8.530;2023-08-06T05:47:03;98480.06;;;14.41
70389;BMP280;58659;49.050;8.530;2023-08-06T05:49:29;98446.81;;;14.35
70389;BMP280;58659;49.050;8.530;2023-08-06T05:51:54;98425.25;;;14.27
70389;BMP280;58659;49.050;8.530;2023-08-06T05:54:19;98401.41;;;14.18
70389;BMP280;58659;49.050;8.530;2023-08-06T05:56:44;98389.88;;;14.12
70389;BMP280;58659;49.050;8.530;2023-08-06T05:59:10;98379.75;;;13.94
70389;BMP280;58659;49.050;8.530;2023-08-06T06:01:35;98362.97;;;13.92
70389;BMP280;58659;49.050;8.530;2023-08-06T06:04:00;98338.50;;;13.95
70389;BMP280;58659;49.050;8.530;2023-08-06T06:06:25;98334.09;;;13.92
70389;BMP280;58659;49.050;8.530;2023-08-06T06:08:51;98325.03;;;13.93
70389;BMP280;58659;49.050;8.530;2023-08-06T06:11:16;98352.13;;;13.90
70389;BMP280;58659;49.050;8.530;2023-08-06T06:13:41;98360.34;;;13.92
70389;BMP280;58659;49.050;8.530;2023-08-06T06:16:06;98376.78;;;13.92
70389;BMP280;58659;49.050;8.530;2023-08-06T06:18:32;98360.91;;;13.99
70389;BMP280;58659;49.050;8.530;2023-08-06T06:20:57;98358.53;;;14.05
70389;BMP280;58659;49.050;8.530;2023-08-06T06:23:22;98374.28;;;14.05
70389;BMP280;58659;49.050;8.530;2023-08-06T06:25:50;98399.06;;;14.04
70389;BMP280;58659;49.050;8.530;2023-08-06T06:28:17;98416.72;;;14.03
70389;BMP280;58659;49.050;8.530;2023-08-06T06:30:42;98398.16;;;14.10
70389;BMP280;58659;49.050;8.530;2023-08-06T06:33:07;98451.41;;;14.11
70389;BMP280;58659;49.050;8.530;2023-08-06T06:35:33;98478.69;;;14.17
70389;BMP280;58659;49.050;8.530;2023-08-06T06:37:58;98492.91;;;14.19
70389;BMP280;58659;49.050;8.530;2023-08-06T06:40:24;98494.66;;;14.26
70389;BMP280;58659;49.050;8.530;2023-08-06T06:42:49;98531.03;;;14.28
70389;BMP280;58659;49.050;8.530;2023-08-06T06:45:14;98555.59;;;14.17
70389;BMP280;58659;49.050;8.530;2023-08-06T06:47:39;98529.75;;;14.16
70389;BMP280;58659;49.050;8.530;2023-08-06T06:50:05;98527.94;;;14.13
70389;BMP280;58659;49.050;8.530;2023-08-06T06:52:30;98506.41;;;13.98
70389;BMP280;58659;49.050;8.530;2023-08-06T06:54:55;98477.50;;;14.02
70389;BMP280;58659;49.050;8.530;2023-08-06T06:57:21;98476.69;;;14.05
70389;BMP280;58659;49.050;8.530;2023-08-06T06:59:46;98483.78;;;14.08
70389;BMP280;58659;49.050;8.530;2023-08-06T07:02:11;98469.50;;;14.09
70389;BMP280;58659;49.050;8.530;2023-08-06T07:04:36;98474.00;;;14.08
70389;BMP280;58659;49.050;8.530;2023-08-06T07:07:02;98480.03;;;14.05
70389;BMP280;58659;49.050;8.530;2023-08-06T07:09:27;98476.53;;;14.12
70389;BMP280;58659;49.050;8.530;2023-08-06T07:11:52;98479.78;;;14.19
70389;BMP280;58659;49.050;8.530;2023-08-06T07:14:18;98477.16;;;14.39
70389;BMP280;58659;49.050;8.530;2023-08-06T07:16:46;98516.38;;;14.46
70389;BMP280;58659;49.050;8.530;2023-08-06T07:19:11;98532.63;;;14.41
70389;BMP280;58659;49.050;8.530;2023-08-06T07:21:36;98525.75;;;14.47
70389;BMP280;58659;49.050;8.530;2023-08-06T07:24:01;98551.22;;;14.50
70389;BMP280;58659;49.050;8.530;2023-08-06T07:26:27;98582.03;;;14.46
70389;BMP280;58659;49.050;8.530;2023-08-06T07:28:52;98587.78;;;14.41
70389;BMP280;58659;49.050;8.530;2023-08-06T07:31:17;98596.16;;;14.36
70389;BMP280;58659;49.050;8.530;2023-08-06T07:33:42;98563.34;;;14.44
70389;BMP280;58659;49.050;8.530;2023-08-06T07:36:09;98589.94;;;14.46
70389;BMP280;58659;49.050;8.530;2023-08-06T07:38:35;98595.53;;;14.48
70389;BMP280;58659;49.050;8.530;2023-08-06T07:41:03;98581.44;;;14.58
70389;BMP280;58659;49.050;8.530;2023-08-06T07:43:29;98627.69;;;14.56
70389;BMP280;58659;49.050;8.530;2023-08-06T07:45:59;98603.81;;;14.47
70389;BMP280;58659;49.050;8.530;2023-08-06T07:48:25;98599.13;;;14.38
70389;BMP280;58659;49.050;8.530;2023-08-06T07:50:51;98578.59;;;14.33
70389;BMP280;58659;49.050;8.530;2023-08-06T07:53:18;98550.84;;;14.32
70389;BMP280;58659;49.050;8.530;2023-08-06T07:55:47;98541.81;;;14.33
70389;BMP280;58659;49.050;8.530;2023-08-06T07:58:15;98523.56;;;14.26
70389;BMP280;58659;49.050;8.530;2023-08-06T08:00:40;98504.50;;;14.22
70389;BMP280;58659;49.050;8.530;2023-08-06T08:03:07;98464.28;;;14.25
70389;BMP280;58659;49.050;8.530;2023-08-06T08:05:32;98444.63;;;14.33
70389;BMP280;58659;49.050;8.530;2023-08-06T08:07:58;98466.09;;;14.28
70389;BMP280;58659;49.050;8.530;2023-08-06T08:10:23;98460.56;;;14.22
70389;BMP280;58659;49.050;8.530;2023-08-06T08:12:51;98422.66;;;14.23
70389;BMP280;58659;49.050;8.530;2023-08-06T08:15:16;98407.63;;;14.24
70389;BMP280;58659;49.050;8.530;2023-08-06T08:17:42;98379.09;;;14.26
70389;BMP280;58659;49.050;8.530;2023-08-06T08:20:07;98386.78;;;14.17
70389;BMP280;58659;49.050;8.530;2023-08-06T08:22:33;98359.88;;;14.13
70389;BMP280;58659;49.050;8.530;2023-08-06T08:24:58;98327.72;;;14.09
70389;BMP280;58659;49.050;8.530;2023-08-06T08:27:23;98296.50;;;14.11
70389;BMP280;58659;49.050;8.530;2023-08-06T08:29:49;98306.00;;;14.05
70389;BMP280;58659;49.050;8.530;2023-08-06T08:32:14;98286.66;;;13.99
70389;BMP280;58659;49.050;8.530;2023-08-06T08:34:39;98275.91;;;13.93
70389;BMP280;58659;49.050;8.530;2023-08-06T08:37:04;98253.88;;;13.91
70389;BMP280;58659;49.050;8.530;2023-08-06T08:39:31;98240.97;;;13.96
70389;BMP280;58659;49.050;8.530;2023-08-06T08:41:56;98230.84;;;14.11
70389;BMP280;58659;49.050;8.530;2023-08-06T08:44:21;98231.72;;;14.08
70389;BMP280;58659;49.050;8.530;2023-08-06T08:46:46;98223.97;;;14.17
70389;BMP280;58659;49.050;8.530;2023-08-06T08:49:12;98232.19;;;14.19
70389;BMP280;58659;49.050;8.530;2023-08-06T08:51:38;98242.34;;;14.17
70389;BMP280;58659;49.050;8.530;2023-08-06T08:54:04;98262.88;;;14.22
70389;BMP280;58659;49.050;8.530;2023-08-06T08:56:32;98282.09;;;14.19
70389;BMP280;58659;49.050;8.530;2023-08-06T08:58:57;98305.38;;;14.17
70389;BMP280;58659;49.050;8.530;2023-08-06T09:01:22;98276.91;;;14.32
70389;BMP280;58659;49.050;8.530;2023-08-06T09:03:48;98302.75;;;14.49
70389;BMP280;58659;49.050;8.530;2023-08-06T09:06:13;98317.75;;;14.65
70389;BMP280;58659;49.050;8.530;2023-08-06T09:08:41;98350.25;;;14.71
70389;BMP280;58659;49.050;8.530;2023-08-06T09:11:09;98372.75;;;14.88
70389;BMP280;58659;49.050;8.530;2023-08-06T09:13:35;98377.44;;;14.97
70389;BMP280;58659;49.050;8.530;2023-08-06T09:16:02;98407.66;;;14.89
70389;BMP280;58659;49.050;8.530;2023-08-06T09:18:29;98366.94;;;14.97
70389;BMP280;58659;49.050;8.530;2023-08-06T09:20:56;98364.84;;;14.88
70389;BMP280;58659;49.050;8.530;2023-08-06T09:23:26;98378.13;;;14.85
70389;BMP280;58659;49.050;8.530;2023-08-06T09:25:53;98342.97;;;15.07
70389;BMP280;58659;49.050;8.530;2023-08-06T09:28:18;98330.72;;;15.29
70389;BMP280;58659;49.050;8.530;2023-08-06T09:30:43;98375.66;;;15.64
70389;BMP280;58659;49.050;8.530;2023-08-06T09:33:12;98446.72;;;15.76
70389;BMP280;58659;49.050;8.530;2023-08-06T09:35:42;98505.91;;;15.72
70389;BMP280;58659;49.050;8.530;2023-08-06T09:38:08;98524.91;;;15.51
70389;BMP280;58659;49.050;8.530;2023-08-06T09:40:34;98482.28;;;15.56
70389;BMP280;58659;49.050;8.530;2023-08-06T09:42:59;98499.97;;;15.55
70389;BMP280;58659;49.050;8.530;2023-08-06T09:45:31;98501.00;;;15.74
70389;BMP280;58659;49.050;8.530;2023-08-06T09:47:58;98551.06;;;15.58
70389;BMP280;58659;49.050;8.530;2023-08-06T09:50:23;98555.50;;;15.45
70389;BMP280;58659;49.050;8.530;2023-08-06T09:52:52;98530.59;;;15.33
70389;BMP280;58659;49.050;8.530;2023-08-06T09:55:17;98510.47;;;15.26
70389;BMP280;58659;49.050;8.530;2023-08-06T09:57:43;98167.56;;;12.89
70389;BMP280;58659;49.050;8.530;2023-08-06T10:00:08;98482.94;;;15.15
70389;BMP280;58659;49.050;8.530;2023-08-06T10:02:35;98497.41;;;15.07
70389;BMP280;58659;49.050;8.530;2023-08-06T10:05:01;98409.97;;;14.38
70389;BMP280;58659;49.050;8.530;2023-08-06T10:07:26;98503.50;;;15.04
70389;BMP280;58659;49.050;8.530;2023-08-06T10:09:52;98520.06;;;15.01
70389;BMP280;58659;49.050;8.530;2023-08-06T10:12:17;98537.34;;;14.86
70389;BMP280;58659;49.050;8.530;2023-08-06T10:14:44;98503.94;;;14.83
70389;BMP280;58659;49.050;8.530;2023-08-06T10:17:10;98478.41;;;14.83
70389;BMP280;58659;49.050;8.530;2023-08-06T10:19:36;98463.38;;;14.84
70389;BMP280;58659;49.050;8.530;2023-08-06T10:22:07;98453.88;;;14.73
70389;BMP280;58659;49.050;8.530;2023-08-06T10:24:52;98449.41;;;14.70
70389;BMP280;58659;49.050;8.530;2023-08-06T10:27:31;98438.38;;;14.75
70389;BMP280;58659;49.050;8.530;2023-08-06T10:30:43;98429.06;;;14.74
70389;BMP280;58659;49.050;8.530;2023-08-06T10:32:46;98431.84;;;14.67
70389;BMP280;58659;49.050;8.530;2023-08-06T10:35:27;98442.16;;;14.58
70389;BMP280;58659;49.050;8.530;2023-08-06T10:37:52;98422.63;;;14.59
70389;BMP280;58659;49.050;8.530;2023-08-06T10:40:20;98423.75;;;14.58
70389;BMP280;58659;49.050;8.530;2023-08-06T10:42:45;98455.22;;;14.46
70389;BMP280;58659;49.050;8.530;2023-08-06T10:47:39;98381.59;;;13.78
70389;BMP280;58659;49.050;8.530;2023-08-06T10:50:05;98312.31;;;13.16
70389;BMP280;58659;49.050;8.530;2023-08-06T10:52:30;98508.31;;;14.37
70389;BMP280;58659;49.050;8.530;2023-08-06T10:54:56;98485.28;;;14.45
70389;BMP280;58659;49.050;8.530;2023-08-06T10:57:21;98489.91;;;14.57
70389;BMP280;58659;49.050;8.530;2023-08-06T10:59:46;98215.34;;;12.53
70389;BMP280;58659;49.050;8.530;2023-08-06T11:02:11;98556.34;;;14.38
70389;BMP280;58659;49.050;8.530;2023-08-06T11:04:37;98559.84;;;14.31
70389;BMP280;58659;49.050;8.530;2023-08-06T11:07:03;98335.19;;;12.92
70389;BMP280;58659;49.050;8.530;2023-08-06T11:09:28;98531.44;;;14.26
70389;BMP280;58659;49.050;8.530;2023-08-06T11:11:53;98556.72;;;14.16
70389;BMP280;58659;49.050;8.530;2023-08-06T11:14:18;98544.34;;;14.17
70389;BMP280;58659;49.050;8.530;2023-08-06T11:16:44;98537.06;;;14.05
70389;BMP280;58659;49.050;8.530;2023-08-06T11:19:09;98181.72;;;14.11
70389;BMP280;58659;49.050;8.530;2023-08-06T11:21:35;98543.06;;;14.05
70389;BMP280;58659;49.050;8.530;2023-08-06T11:24:00;98543.94;;;13.99
70389;BMP280;58659;49.050;8.530;2023-08-06T11:26:26;98538.69;;;13.99
70389;BMP280;58659;49.050;8.530;2023-08-06T11:28:53;98549.34;;;13.92
70389;BMP280;58659;49.050;8.530;2023-08-06T11:31:21;98567.47;;;13.83
70389;BMP280;58659;49.050;8.530;2023-08-06T11:33:47;98640.69;;;14.43
70389;BMP280;58659;49.050;8.530;2023-08-06T11:36:12;98531.88;;;13.82
70389;BMP280;58659;49.050;8.530;2023-08-06T11:38:37;98528.47;;;13.85
70389;BMP280;58659;49.050;8.530;2023-08-06T11:41:02;98567.13;;;13.81
70389;BMP280;58659;49.050;8.530;2023-08-06T11:43:29;98504.84;;;13.15
70389;BMP280;58659;49.050;8.530;2023-08-06T11:45:55;98607.66;;;13.80
70389;BMP280;58659;49.050;8.530;2023-08-06T11:48:21;98614.72;;;13.83
70389;BMP280;58659;49.050;8.530;2023-08-06T11:50:46;98622.78;;;13.95
70389;BMP280;58659;49.050;8.530;2023-08-06T11:53:14;98648.50;;;14.04
70389;BMP280;58659;49.050;8.530;2023-08-06T11:55:40;98677.34;;;14.07
70389;BMP280;58659;49.050;8.530;2023-08-06T11:58:05;98689.94;;;14.16
70389;BMP280;58659;49.050;8.530;2023-08-06T12:00:31;98732.19;;;14.25
70389;BMP280;58659;49.050;8.530;2023-08-06T12:02:56;98737.16;;;14.43
70389;BMP280;58659;49.050;8.530;2023-08-06T12:05:22;98767.56;;;14.44
70389;BMP280;58659;49.050;8.530;2023-08-06T12:07:52;98781.34;;;14.48
70389;BMP280;58659;49.050;8.530;2023-08-06T12:10:19;98786.22;;;14.49
70389;BMP280;58659;49.050;8.530;2023-08-06T12:12:47;98815.06;;;14.53
70389;BMP280;58659;49.050;8.530;2023-08-06T12:15:12;98854.28;;;14.67
70389;BMP280;58659;49.050;8.530;2023-08-06T12:17:38;98912.78;;;14.71
70389;BMP280;58659;49.050;8.530;2023-08-06T12:20:06;98909.69;;;14.76
70389;BMP280;58659;49.050;8.530;2023-08-06T12:22:32;98913.53;;;14.71
70389;BMP280;58659;49.050;8.530;2023-08-06T12:25:03;98931.25;;;14.67
70389;BMP280;58659;49.050;8.530;2023-08-06T12:27:30;98925.16;;;14.70
70389;BMP280;58659;49.050;8.530;2023-08-06T12:29:55;98932.47;;;14.63
70389;BMP280;58659;49.050;8.530;2023-08-06T12:32:20;98868.34;;;14.80
70389;BMP280;58659;49.050;8.530;2023-08-06T12:34:47;98919.44;;;14.79
70389;BMP280;58659;49.050;8.530;2023-08-06T12:37:12;98949.47;;;14.78
70389;BMP280;58659;49.050;8.530;2023-08-06T12:39:37;98964.50;;;14.77
70389;BMP280;58659;49.050;8.530;2023-08-06T12:42:03;98927.31;;;14.79
70389;BMP280;58659;49.050;8.530;2023-08-06T12:44:29;98974.84;;;14.92
70389;BMP280;58659;49.050;8.530;2023-08-06T12:46:54;98973.09;;;15.05
70389;BMP280;58659;49.050;8.530;2023-08-06T12:49:20;98957.66;;;15.07
70389;BMP280;58659;49.050;8.530;2023-08-06T12:51:49;98946.06;;;15.04
70389;BMP280;58659;49.050;8.530;2023-08-06T12:54:18;98979.53;;;15.04
70389;BMP280;58659;49.050;8.530;2023-08-06T12:56:44;98986.31;;;15.01
70389;BMP280;58659;49.050;8.530;2023-08-06T12:59:09;98997.00;;;14.91
70389;BMP280;58659;49.050;8.530;2023-08-06T13:01:35;98969.50;;;14.95
70389;BMP280;58659;49.050;8.530;2023-08-06T13:04:00;98949.31;;;14.89
70389;BMP280;58659;49.050;8.530;2023-08-06T13:06:25;98980.09;;;14.92
70389;BMP280;58659;49.050;8.530;2023-08-06T13:08:51;99023.59;;;14.96
70389;BMP280;58659;49.050;8.530;2023-08-06T13:11:16;99032.44;;;15.09
70389;BMP280;58659;49.050;8.530;2023-08-06T13:13:41;98988.66;;;15.42
70389;BMP280;58659;49.050;8.530;2023-08-06T13:16:06;99055.56;;;15.64
70389;BMP280;58659;49.050;8.530;2023-08-06T13:18:32;99097.38;;;15.82
70389;BMP280;58659;49.050;8.530;2023-08-06T13:20:57;99098.72;;;15.93
70389;BMP280;58659;49.050;8.530;2023-08-06T13:23:23;99137.69;;;16.02
70389;BMP280;58659;49.050;8.530;2023-08-06T13:25:48;99152.13;;;16.17
70389;BMP280;58659;49.050;8.530;2023-08-06T13:28:13;99194.28;;;16.37
70389;BMP280;58659;49.050;8.530;2023-08-06T13:30:41;99219.53;;;16.58
70389;BMP280;58659;49.050;8.530;2023-08-06T13:33:09;99231.34;;;16.49
70389;BMP280;58659;49.050;8.530;2023-08-06T13:35:35;99241.69;;;16.40
70389;BMP280;58659;49.050;8.530;2023-08-06T13:38:00;99239.56;;;16.32
70389;BMP280;58659;49.050;8.530;2023-08-06T13:40:27;99247.47;;;16.09
70389;BMP280;58659;49.050;8.530;2023-08-06T13:42:53;99255.13;;;16.03
70389;BMP280;58659;49.050;8.530;2023-08-06T13:45:18;99243.00;;;16.06
70389;BMP280;58659;49.050;8.530;2023-08-06T13:47:43;99249.38;;;16.08
70389;BMP280;58659;49.050;8.530;2023-08-06T13:50:09;99245.13;;;16.14
70389;BMP280;58659;49.050;8.530;2023-08-06T13:52:34;99266.09;;;15.98
70389;BMP280;58659;49.050;8.530;2023-08-06T13:55:00;99256.59;;;16.04
70389;BMP280;58659;49.050;8.530;2023-08-06T13:57:26;99259.47;;;16.13
70389;BMP280;58659;49.050;8.530;2023-08-06T13:59:51;99266.16;;;16.18
70389;BMP280;58659;49.050;8.530;2023-08-06T14:02:16;99270.81;;;16.10
70389;BMP280;58659;49.050;8.530;2023-08-06T14:04:41;99261.69;;;16.15
70389;BMP280;58659;49.050;8.530;2023-08-06T14:07:07;99276.38;;;16.16
70389;BMP280;58659;49.050;8.530;2023-08-06T14:09:32;99288.50;;;16.10